createdAt,value
2023-02-24T00:00:28.259Z,1008.24
2023-02-24T00:01:32.507Z,1008.22
2023-02-24T00:02:36.796Z,1008.20
2023-02-24T00:03:40.979Z,1008.18
2023-02-24T00:04:45.073Z,1008.15
2023-02-24T00:05:49.268Z,1008.14
2023-02-24T00:06:53.492Z,1008.13
2023-02-24T00:07:57.649Z,1008.10
2023-02-24T00:09:01.892Z,1008.09
2023-02-24T00:10:06.057Z,1008.10
2023-02-24T00:11:10.266Z,1008.09
2023-02-24T00:12:14.417Z,1008.06
2023-02-24T00:13:24.550Z,1008.08
2023-02-24T00:14:27.340Z,1008.08
2023-02-24T00:15:31.388Z,1008.10
2023-02-24T00:16:35.775Z,1008.04
2023-02-24T00:17:39.681Z,1008.07
2023-02-24T00:18:44.011Z,1008.07
2023-02-24T00:19:48.114Z,1008.03
2023-02-24T00:20:52.438Z,1008.00
2023-02-24T00:21:56.585Z,1008.02
2023-02-24T00:23:00.778Z,1008.01
2023-02-24T00:24:05.001Z,1007.96
2023-02-24T00:25:09.179Z,1007.95
2023-02-24T00:26:13.370Z,1007.94
2023-02-24T00:27:17.432Z,1007.93
2023-02-24T00:28:21.702Z,1007.91
2023-02-24T00:29:25.963Z,1007.87
2023-02-24T00:30:30.174Z,1007.92
2023-02-24T00:31:34.501Z,1007.89
2023-02-24T00:32:38.631Z,1007.91
2023-02-24T00:33:42.794Z,1007.87
2023-02-24T00:34:47.099Z,1007.87
2023-02-24T00:35:51.227Z,1007.85
2023-02-24T00:36:55.573Z,1007.83
2023-02-24T00:37:59.711Z,1007.82
2023-02-24T00:39:03.970Z,1007.78
2023-02-24T00:40:08.110Z,1007.77
2023-02-24T00:41:12.297Z,1007.76
2023-02-24T00:42:16.469Z,1007.78
2023-02-24T00:43:20.782Z,1007.78
2023-02-24T00:44:24.923Z,1007.76
2023-02-24T00:45:29.069Z,1007.75
2023-02-24T00:46:33.333Z,1007.74
2023-02-24T00:47:37.428Z,1007.73
2023-02-24T00:48:41.711Z,1007.69
2023-02-24T00:49:45.962Z,1007.72
2023-02-24T00:50:50.304Z,1007.70
2023-02-24T00:51:54.371Z,1007.68
2023-02-24T00:52:58.664Z,1007.67
2023-02-24T00:54:02.920Z,1007.66
2023-02-24T00:55:07.043Z,1007.63
2023-02-24T00:56:11.238Z,1007.63
2023-02-24T00:57:15.438Z,1007.64
2023-02-24T00:58:19.677Z,1007.61
2023-02-24T00:59:24.050Z,1007.58
2023-02-24T01:00:28.132Z,1007.55
2023-02-24T01:01:32.396Z,1007.54
2023-02-24T01:02:36.440Z,1007.52
2023-02-24T01:03:40.696Z,1007.53
2023-02-24T01:04:44.821Z,1007.51
2023-02-24T01:05:49.042Z,1007.50
2023-02-24T01:06:53.251Z,1007.50
2023-02-24T01:07:57.390Z,1007.45
2023-02-24T01:09:01.695Z,1007.44
2023-02-24T01:10:05.881Z,1007.43
2023-02-24T01:11:10.048Z,1007.43
2023-02-24T01:12:14.384Z,1007.42
2023-02-24T01:13:18.513Z,1007.42
2023-02-24T01:14:22.674Z,1007.43
2023-02-24T01:15:26.858Z,1007.39
2023-02-24T01:16:31.064Z,1007.39
2023-02-24T01:17:35.272Z,1007.41
2023-02-24T01:18:39.497Z,1007.40
2023-02-24T01:19:43.676Z,1007.38
2023-02-24T01:20:47.878Z,1007.37
2023-02-24T01:21:52.091Z,1007.38
2023-02-24T01:22:56.353Z,1007.37
2023-02-24T01:24:00.470Z,1007.36
2023-02-24T01:25:04.610Z,1007.34
2023-02-24T01:26:08.841Z,1007.33
2023-02-24T01:27:13.038Z,1007.31
2023-02-24T01:28:17.222Z,1007.27
2023-02-24T01:29:21.538Z,1007.31
2023-02-24T01:30:25.630Z,1007.27
2023-02-24T01:31:29.942Z,1007.24
2023-02-24T01:32:34.303Z,1007.23
2023-02-24T01:33:38.216Z,1007.21
2023-02-24T01:34:42.504Z,1007.21
2023-02-24T01:35:52.551Z,1007.17
2023-02-24T01:36:55.327Z,1007.14
2023-02-24T01:37:59.618Z,1007.13
2023-02-24T01:39:03.735Z,1007.13
2023-02-24T01:40:08.003Z,1007.10
2023-02-24T01:41:12.119Z,1007.12
2023-02-24T01:42:16.319Z,1007.06
2023-02-24T01:43:20.524Z,1007.06
2023-02-24T01:44:24.695Z,1007.04
2023-02-24T01:45:29.090Z,1007.05
2023-02-24T01:46:33.153Z,1007.04
2023-02-24T01:47:40.220Z,1007.01
2023-02-24T01:48:43.504Z,1007.02
2023-02-24T01:49:47.694Z,1007.01
2023-02-24T01:50:51.851Z,1006.98
2023-02-24T01:51:55.998Z,1006.98
2023-02-24T01:53:00.099Z,1006.92
2023-02-24T01:54:04.378Z,1006.91
2023-02-24T01:55:08.469Z,1006.86
2023-02-24T01:56:12.650Z,1006.88
2023-02-24T01:57:16.883Z,1006.84
2023-02-24T01:58:21.069Z,1006.82
2023-02-24T01:59:25.245Z,1006.80
2023-02-24T02:00:29.458Z,1006.79
2023-02-24T02:01:33.658Z,1006.80
2023-02-24T02:02:37.928Z,1006.82
2023-02-24T02:03:42.152Z,1006.80
2023-02-24T02:04:46.349Z,1006.79
2023-02-24T02:05:50.554Z,1006.78
2023-02-24T02:06:54.778Z,1006.76
2023-02-24T02:07:58.954Z,1006.76
2023-02-24T02:09:03.192Z,1006.74
2023-02-24T02:10:07.489Z,1006.69
2023-02-24T02:11:11.683Z,1006.66
2023-02-24T02:12:15.792Z,1006.65
2023-02-24T02:13:20.022Z,1006.65
2023-02-24T02:14:24.163Z,1006.63
2023-02-24T02:15:28.396Z,1006.60
2023-02-24T02:16:32.613Z,1006.59
2023-02-24T02:17:36.788Z,1006.59
2023-02-24T02:18:40.976Z,1006.58
2023-02-24T02:19:45.172Z,1006.53
2023-02-24T02:20:49.388Z,1006.55
2023-02-24T02:21:53.570Z,1006.52
2023-02-24T02:22:57.796Z,1006.52
2023-02-24T02:24:02.008Z,1006.51
2023-02-24T02:25:06.208Z,1006.47
2023-02-24T02:26:10.451Z,1006.44
2023-02-24T02:27:14.740Z,1006.42
2023-02-24T02:28:18.846Z,1006.38
2023-02-24T02:29:23.105Z,1006.33
2023-02-24T02:30:27.352Z,1006.33
2023-02-24T02:31:31.604Z,1006.34
2023-02-24T02:32:35.831Z,1006.31
2023-02-24T02:33:39.844Z,1006.31
2023-02-24T02:34:44.046Z,1006.32
2023-02-24T02:35:48.128Z,1006.31
2023-02-24T02:36:52.359Z,1006.28
2023-02-24T02:37:56.569Z,1006.24
2023-02-24T02:39:00.752Z,1006.24
2023-02-24T02:40:19.015Z,1006.23
2023-02-24T02:41:22.448Z,1006.22
2023-02-24T02:42:26.291Z,1006.21
2023-02-24T02:43:30.552Z,1006.17
2023-02-24T02:44:34.679Z,1006.15
2023-02-24T02:45:38.913Z,1006.15
2023-02-24T02:46:43.131Z,1006.11
2023-02-24T02:47:47.321Z,1006.14
2023-02-24T02:48:51.577Z,1006.12
2023-02-24T02:49:55.792Z,1006.08
2023-02-24T02:50:59.966Z,1006.09
2023-02-24T02:52:04.255Z,1006.09
2023-02-24T02:53:08.437Z,1006.08
2023-02-24T02:54:15.636Z,1006.06
2023-02-24T02:55:18.926Z,1006.07
2023-02-24T02:56:23.079Z,1006.05
2023-02-24T02:57:27.328Z,1006.04
2023-02-24T02:58:31.470Z,1006.02
2023-02-24T02:59:35.788Z,1006.02
2023-02-24T03:00:40.051Z,1006.00
2023-02-24T03:01:44.204Z,1006.00
2023-02-24T03:02:48.461Z,1005.98
2023-02-24T03:03:52.627Z,1005.96
2023-02-24T03:04:56.907Z,1005.97
2023-02-24T03:06:01.950Z,1005.92
2023-02-24T03:07:05.831Z,1005.89
2023-02-24T03:08:09.875Z,1005.89
2023-02-24T03:09:14.116Z,1005.86
2023-02-24T03:10:18.274Z,1005.85
2023-02-24T03:11:22.706Z,1005.84
2023-02-24T03:12:26.740Z,1005.80
2023-02-24T03:13:30.960Z,1005.78
2023-02-24T03:14:35.063Z,1005.77
2023-02-24T03:15:39.321Z,1005.74
2023-02-24T03:16:43.612Z,1005.69
2023-02-24T03:17:47.870Z,1005.66
2023-02-24T03:18:52.025Z,1005.64
2023-02-24T03:19:56.231Z,1005.62
2023-02-24T03:21:00.437Z,1005.61
2023-02-24T03:22:04.664Z,1005.60
2023-02-24T03:23:08.862Z,1005.58
2023-02-24T03:24:13.080Z,1005.56
2023-02-24T03:25:17.260Z,1005.56
2023-02-24T03:26:21.440Z,1005.55
2023-02-24T03:27:25.628Z,1005.52
2023-02-24T03:28:29.817Z,1005.51
2023-02-24T03:29:34.044Z,1005.51
2023-02-24T03:30:38.295Z,1005.48
2023-02-24T03:31:42.474Z,1005.44
2023-02-24T03:32:46.693Z,1005.45
2023-02-24T03:33:50.743Z,1005.43
2023-02-24T03:34:54.945Z,1005.42
2023-02-24T03:35:59.234Z,1005.40
2023-02-24T03:37:03.312Z,1005.39
2023-02-24T03:38:07.595Z,1005.38
2023-02-24T03:39:11.773Z,1005.35
2023-02-24T03:40:15.982Z,1005.32
2023-02-24T03:41:20.489Z,1005.34
2023-02-24T03:42:24.469Z,1005.30
2023-02-24T03:43:28.713Z,1005.29
2023-02-24T03:44:32.879Z,1005.27
2023-02-24T03:45:37.129Z,1005.25
2023-02-24T03:46:41.216Z,1005.21
2023-02-24T03:47:45.522Z,1005.17
2023-02-24T03:48:49.759Z,1005.17
2023-02-24T03:49:53.964Z,1005.16
2023-02-24T03:50:58.120Z,1005.17
2023-02-24T03:52:02.246Z,1005.11
2023-02-24T03:53:06.532Z,1005.09
2023-02-24T03:54:10.688Z,1005.09
2023-02-24T03:55:14.976Z,1005.06
2023-02-24T03:56:19.137Z,1005.02
2023-02-24T03:57:23.456Z,1005.02
2023-02-24T03:58:27.580Z,1005.01
2023-02-24T03:59:31.811Z,1004.98
2023-02-24T04:00:39.090Z,1004.97
2023-02-24T04:01:42.319Z,1004.95
2023-02-24T04:02:46.453Z,1004.92
2023-02-24T04:03:50.697Z,1004.89
2023-02-24T04:04:54.818Z,1004.89
2023-02-24T04:05:59.029Z,1004.85
2023-02-24T04:07:03.218Z,1004.85
2023-02-24T04:08:07.502Z,1004.84
2023-02-24T04:09:11.678Z,1004.83
2023-02-24T04:10:15.762Z,1004.81
2023-02-24T04:11:20.404Z,1004.80
2023-02-24T04:12:24.224Z,1004.78
2023-02-24T04:13:29.285Z,1004.75
2023-02-24T04:14:33.090Z,1004.75
2023-02-24T04:15:37.373Z,1004.70
2023-02-24T04:16:41.510Z,1004.69
2023-02-24T04:17:45.732Z,1004.63
2023-02-24T04:18:49.899Z,1004.62
2023-02-24T04:19:53.998Z,1004.58
2023-02-24T04:20:58.372Z,1004.55
2023-02-24T04:22:02.544Z,1004.56
2023-02-24T04:23:06.756Z,1004.55
2023-02-24T04:24:10.977Z,1004.53
2023-02-24T04:25:15.203Z,1004.51
2023-02-24T04:26:19.349Z,1004.47
2023-02-24T04:27:23.552Z,1004.46
2023-02-24T04:28:27.786Z,1004.42
2023-02-24T04:29:32.062Z,1004.40
2023-02-24T04:30:36.238Z,1004.37
2023-02-24T04:31:40.667Z,1004.40
2023-02-24T04:32:44.595Z,1004.37
2023-02-24T04:33:48.890Z,1004.35
2023-02-24T04:34:52.933Z,1004.31
2023-02-24T04:35:57.185Z,1004.32
2023-02-24T04:37:01.394Z,1004.31
2023-02-24T04:38:05.705Z,1004.27
2023-02-24T04:39:09.740Z,1004.24
2023-02-24T04:40:14.008Z,1004.22
2023-02-24T04:41:18.680Z,1004.22
2023-02-24T04:42:22.399Z,1004.21
2023-02-24T04:43:26.525Z,1004.18
2023-02-24T04:44:30.662Z,1004.15
2023-02-24T04:45:34.773Z,1004.12
2023-02-24T04:46:39.001Z,1004.07
2023-02-24T04:47:43.140Z,1004.06
2023-02-24T04:48:47.391Z,1004.06
2023-02-24T04:49:51.577Z,1004.02
2023-02-24T04:50:55.716Z,1004.01
2023-02-24T04:51:59.833Z,1003.96
2023-02-24T04:53:04.099Z,1003.93
2023-02-24T04:54:08.168Z,1003.91
2023-02-24T04:55:12.447Z,1003.87
2023-02-24T04:56:16.768Z,1003.82
2023-02-24T04:57:20.924Z,1003.82
2023-02-24T04:58:25.089Z,1003.76
2023-02-24T04:59:29.175Z,1003.78
2023-02-24T05:00:33.513Z,1003.67
2023-02-24T05:01:37.654Z,1003.65
2023-02-24T05:02:41.844Z,1003.68
2023-02-24T05:03:46.103Z,1003.65
2023-02-24T05:04:56.428Z,1003.65
2023-02-24T05:05:58.998Z,1003.63
2023-02-24T05:07:06.296Z,1003.60
2023-02-24T05:08:09.420Z,1003.55
2023-02-24T05:09:13.708Z,1003.53
2023-02-24T05:10:17.981Z,1003.50
2023-02-24T05:11:22.426Z,1003.49
2023-02-24T05:12:26.310Z,1003.46
2023-02-24T05:13:30.482Z,1003.46
2023-02-24T05:14:34.726Z,1003.43
2023-02-24T05:15:38.995Z,1003.41
2023-02-24T05:16:43.193Z,1003.37
2023-02-24T05:17:47.368Z,1003.34
2023-02-24T05:18:51.538Z,1003.28
2023-02-24T05:19:55.735Z,1003.28
2023-02-24T05:21:01.793Z,1003.22
2023-02-24T05:22:04.102Z,1003.21
2023-02-24T05:23:08.328Z,1003.15
2023-02-24T05:24:12.507Z,1003.17
2023-02-24T05:25:16.782Z,1003.17
2023-02-24T05:26:20.807Z,1003.15
2023-02-24T05:27:25.138Z,1003.13
2023-02-24T05:28:29.259Z,1003.12
2023-02-24T05:29:33.424Z,1003.10
2023-02-24T05:30:37.707Z,1003.07
2023-02-24T05:31:41.967Z,1003.06
2023-02-24T05:32:46.047Z,1003.04
2023-02-24T05:33:50.170Z,1003.03
2023-02-24T05:34:54.435Z,1002.99
2023-02-24T05:35:58.546Z,1002.97
2023-02-24T05:37:02.680Z,1002.93
2023-02-24T05:38:06.900Z,1002.95
2023-02-24T05:39:11.178Z,1002.92
2023-02-24T05:40:15.343Z,1002.90
2023-02-24T05:41:19.961Z,1002.90
2023-02-24T05:42:23.656Z,1002.91
2023-02-24T05:43:27.841Z,1002.89
2023-02-24T05:44:32.045Z,1002.88
2023-02-24T05:45:36.340Z,1002.86
2023-02-24T05:46:40.493Z,1002.84
2023-02-24T05:47:44.619Z,1002.86
2023-02-24T05:48:48.729Z,1002.83
2023-02-24T05:49:52.959Z,1002.82
2023-02-24T05:50:57.148Z,1002.82
2023-02-24T05:52:01.221Z,1002.79
2023-02-24T05:53:05.458Z,1002.78
2023-02-24T05:54:09.630Z,1002.73
2023-02-24T05:55:13.892Z,1002.69
2023-02-24T05:56:18.013Z,1002.66
2023-02-24T05:57:22.228Z,1002.65
2023-02-24T05:58:26.304Z,1002.60
2023-02-24T05:59:33.778Z,1002.55
2023-02-24T06:00:37.155Z,1002.56
2023-02-24T06:01:41.301Z,1002.55
2023-02-24T06:02:46.316Z,1002.51
2023-02-24T06:03:50.144Z,1002.49
2023-02-24T06:04:54.368Z,1002.50
2023-02-24T06:05:58.475Z,1002.47
2023-02-24T06:07:02.570Z,1002.46
2023-02-24T06:08:06.809Z,1002.47
2023-02-24T06:09:11.113Z,1002.44
2023-02-24T06:10:15.158Z,1002.44
2023-02-24T06:11:19.754Z,1002.44
2023-02-24T06:12:23.533Z,1002.42
2023-02-24T06:13:30.760Z,1002.41
2023-02-24T06:14:34.118Z,1002.39
2023-02-24T06:15:38.329Z,1002.42
2023-02-24T06:16:42.445Z,1002.44
2023-02-24T06:17:46.660Z,1002.38
2023-02-24T06:18:50.741Z,1002.40
2023-02-24T06:19:54.984Z,1002.40
2023-02-24T06:20:59.273Z,1002.37
2023-02-24T06:22:03.393Z,1002.34
2023-02-24T06:23:07.582Z,1002.34
2023-02-24T06:24:11.797Z,1002.31
2023-02-24T06:25:16.024Z,1002.32
2023-02-24T06:26:20.187Z,1002.29
2023-02-24T06:27:24.748Z,1002.28
2023-02-24T06:28:28.616Z,1002.26
2023-02-24T06:29:33.013Z,1002.23
2023-02-24T06:30:37.161Z,1002.23
2023-02-24T06:31:55.498Z,1002.20
2023-02-24T06:32:58.344Z,1002.20
2023-02-24T06:34:02.329Z,1002.21
2023-02-24T06:35:06.536Z,1002.18
2023-02-24T06:36:10.689Z,1002.18
2023-02-24T06:37:14.901Z,1002.19
2023-02-24T06:38:18.962Z,1002.15
2023-02-24T06:39:23.280Z,1002.14
2023-02-24T06:40:27.440Z,1002.10
2023-02-24T06:41:31.547Z,1002.10
2023-02-24T06:42:35.763Z,1002.12
2023-02-24T06:43:40.019Z,1002.08
2023-02-24T06:44:44.190Z,1002.10
2023-02-24T06:45:48.432Z,1002.07
2023-02-24T06:46:52.563Z,1002.02
2023-02-24T06:47:56.817Z,1002.03
2023-02-24T06:49:00.984Z,1002.02
2023-02-24T06:50:05.164Z,1002.01
2023-02-24T06:51:09.351Z,1001.97
2023-02-24T06:52:13.541Z,1001.95
2023-02-24T06:53:17.829Z,1001.89
2023-02-24T06:54:21.993Z,1001.88
2023-02-24T06:55:26.177Z,1001.88
2023-02-24T06:56:32.419Z,1001.86
2023-02-24T06:57:34.516Z,1001.84
2023-02-24T06:58:38.776Z,1001.81
2023-02-24T06:59:42.982Z,1001.81
2023-02-24T07:00:47.195Z,1001.79
2023-02-24T07:01:51.442Z,1001.74
2023-02-24T07:02:55.621Z,1001.74
2023-02-24T07:03:59.863Z,1001.70
2023-02-24T07:05:03.996Z,1001.70
2023-02-24T07:06:08.326Z,1001.67
2023-02-24T07:07:12.366Z,1001.66
2023-02-24T07:08:16.530Z,1001.66
2023-02-24T07:09:20.831Z,1001.63
2023-02-24T07:10:25.017Z,1001.63
2023-02-24T07:11:29.224Z,1001.58
2023-02-24T07:12:47.518Z,1001.60
2023-02-24T07:13:50.386Z,1001.59
2023-02-24T07:14:54.548Z,1001.52
2023-02-24T07:15:58.762Z,1001.49
2023-02-24T07:17:02.977Z,1001.49
2023-02-24T07:18:07.076Z,1001.44
2023-02-24T07:19:17.304Z,1001.42
2023-02-24T07:20:20.224Z,1001.43
2023-02-24T07:21:24.276Z,1001.38
2023-02-24T07:22:28.363Z,1001.36
2023-02-24T07:23:32.623Z,1001.34
2023-02-24T07:24:37.083Z,1001.29
2023-02-24T07:25:40.922Z,1001.31
2023-02-24T07:26:45.032Z,1001.26
2023-02-24T07:27:49.264Z,1001.27
2023-02-24T07:28:53.493Z,1001.25
2023-02-24T07:29:57.655Z,1001.19
2023-02-24T07:31:01.955Z,1001.22
2023-02-24T07:32:06.290Z,1001.18
2023-02-24T07:33:10.073Z,1001.20
2023-02-24T07:34:14.290Z,1001.18
2023-02-24T07:35:18.443Z,1001.18
2023-02-24T07:36:22.629Z,1001.16
2023-02-24T07:37:41.001Z,1001.14
2023-02-24T07:38:50.254Z,1001.12
2023-02-24T07:39:53.136Z,1001.13
2023-02-24T07:40:57.197Z,1001.11
2023-02-24T07:42:01.417Z,1001.08
2023-02-24T07:43:05.650Z,1001.08
2023-02-24T07:44:09.843Z,1001.06
2023-02-24T07:45:14.049Z,1001.03
2023-02-24T07:46:18.178Z,1001.03
2023-02-24T07:47:22.314Z,1001.04
2023-02-24T07:48:26.607Z,1001.00
2023-02-24T07:49:30.655Z,1000.97
2023-02-24T07:50:34.786Z,1000.98
2023-02-24T07:51:39.068Z,1000.96
2023-02-24T07:52:43.380Z,1000.96
2023-02-24T07:53:47.408Z,1000.89
2023-02-24T07:54:51.654Z,1000.91
2023-02-24T07:55:55.869Z,1000.90
2023-02-24T07:57:00.153Z,1000.87
2023-02-24T07:58:04.281Z,1000.84
2023-02-24T07:59:08.503Z,1000.85
2023-02-24T08:00:14.573Z,1000.84
2023-02-24T08:01:16.812Z,1000.84
2023-02-24T08:02:21.222Z,1000.82
2023-02-24T08:03:25.294Z,1000.79
2023-02-24T08:04:29.584Z,1000.73
2023-02-24T08:05:33.765Z,1000.72
2023-02-24T08:06:38.022Z,1000.71
2023-02-24T08:07:42.285Z,1000.68
2023-02-24T08:08:46.397Z,1000.66
2023-02-24T08:09:50.727Z,1000.62
2023-02-24T08:10:54.889Z,1000.61
2023-02-24T08:11:59.136Z,1000.58
2023-02-24T08:13:03.339Z,1000.58
2023-02-24T08:14:07.503Z,1000.58
2023-02-24T08:15:11.738Z,1000.54
2023-02-24T08:16:16.065Z,1000.50
2023-02-24T08:17:20.204Z,1000.56
2023-02-24T08:18:24.363Z,1000.48
2023-02-24T08:19:28.517Z,1000.46
2023-02-24T08:20:32.698Z,1000.44
2023-02-24T08:21:36.867Z,1000.42
2023-02-24T08:22:41.069Z,1000.43
2023-02-24T08:23:45.289Z,1000.47
2023-02-24T08:24:49.436Z,1000.45
2023-02-24T08:25:53.692Z,1000.40
2023-02-24T08:26:57.800Z,1000.38
2023-02-24T08:28:07.871Z,1000.40
2023-02-24T08:29:06.201Z,1000.38
2023-02-24T08:30:10.378Z,1000.31
2023-02-24T08:31:14.805Z,1000.29
2023-02-24T08:32:20.752Z,1000.27
2023-02-24T08:33:23.246Z,1000.24
2023-02-24T08:34:27.285Z,1000.18
2023-02-24T08:35:31.452Z,1000.17
2023-02-24T08:36:35.594Z,1000.17
2023-02-24T08:37:39.964Z,1000.15
2023-02-24T08:38:43.974Z,1000.13
2023-02-24T08:39:48.135Z,1000.14
2023-02-24T08:40:52.368Z,1000.09
2023-02-24T08:41:56.473Z,1000.08
2023-02-24T08:43:00.685Z,1000.06
2023-02-24T08:44:04.852Z,1000.05
2023-02-24T08:45:09.054Z,999.99
2023-02-24T08:46:13.853Z,999.96
2023-02-24T08:47:17.577Z,999.94
2023-02-24T08:48:21.708Z,999.91
2023-02-24T08:49:25.939Z,999.90
2023-02-24T08:50:30.065Z,999.87
2023-02-24T08:51:34.230Z,999.84
2023-02-24T08:52:38.421Z,999.82
2023-02-24T08:53:42.580Z,999.81
2023-02-24T08:54:46.747Z,999.76
2023-02-24T08:55:50.833Z,999.77
2023-02-24T08:56:55.079Z,999.72
2023-02-24T08:57:59.430Z,999.66
2023-02-24T08:59:03.419Z,999.69
2023-02-24T09:00:07.703Z,999.63
2023-02-24T09:01:26.156Z,999.62
2023-02-24T09:02:29.043Z,999.58
2023-02-24T09:03:33.124Z,999.53
2023-02-24T09:04:37.310Z,999.50
2023-02-24T09:05:41.397Z,999.48
2023-02-24T09:06:45.591Z,999.46
2023-02-24T09:07:50.645Z,999.47
2023-02-24T09:08:54.351Z,999.38
2023-02-24T09:09:58.586Z,999.40
2023-02-24T09:11:02.706Z,999.37
2023-02-24T09:12:06.918Z,999.30
2023-02-24T09:13:11.000Z,999.30
2023-02-24T09:14:25.999Z,999.25
2023-02-24T09:15:19.483Z,999.27
2023-02-24T09:16:23.825Z,999.25
2023-02-24T09:17:30.007Z,999.22
2023-02-24T09:18:32.021Z,999.14
2023-02-24T09:19:36.765Z,999.09
2023-02-24T09:20:40.441Z,999.08
2023-02-24T09:21:44.627Z,999.05
2023-02-24T09:22:48.799Z,999.05
2023-02-24T09:23:52.877Z,999.05
2023-02-24T09:24:57.076Z,999.08
2023-02-24T09:26:01.250Z,999.04
2023-02-24T09:27:05.458Z,998.99
2023-02-24T09:28:09.634Z,999.00
2023-02-24T09:29:13.803Z,998.92
2023-02-24T09:30:17.915Z,998.92
2023-02-24T09:31:22.646Z,998.93
2023-02-24T09:32:26.403Z,998.91
2023-02-24T09:33:30.501Z,998.89
2023-02-24T09:34:34.737Z,998.88
2023-02-24T09:35:38.942Z,998.89
2023-02-24T09:36:43.075Z,998.77
2023-02-24T09:37:47.223Z,998.74
2023-02-24T09:38:51.324Z,998.72
2023-02-24T09:39:55.554Z,998.68
2023-02-24T09:41:02.811Z,998.66
2023-02-24T09:42:03.871Z,998.64
2023-02-24T09:43:08.119Z,998.58
2023-02-24T09:44:12.212Z,998.49
2023-02-24T09:45:16.358Z,998.50
2023-02-24T09:46:20.758Z,998.48
2023-02-24T09:47:24.686Z,998.51
2023-02-24T09:48:28.881Z,998.52
2023-02-24T09:49:33.047Z,998.52
2023-02-24T09:51:01.065Z,998.45
2023-02-24T09:51:41.473Z,998.48
2023-02-24T09:52:45.543Z,998.50
2023-02-24T09:53:49.764Z,998.47
2023-02-24T09:54:53.926Z,998.49
2023-02-24T09:55:58.062Z,998.42
2023-02-24T09:57:02.368Z,998.44
2023-02-24T09:58:06.462Z,998.39
2023-02-24T09:59:10.655Z,998.40
2023-02-24T10:00:14.797Z,998.36
2023-02-24T10:01:19.415Z,998.34
2023-02-24T10:02:23.094Z,998.33
2023-02-24T10:03:27.246Z,998.28
2023-02-24T10:04:31.298Z,998.21
2023-02-24T10:05:35.635Z,998.21
2023-02-24T10:06:39.771Z,998.20
2023-02-24T10:07:44.049Z,998.24
2023-02-24T10:08:48.150Z,998.21
2023-02-24T10:09:52.238Z,998.17
2023-02-24T10:10:56.444Z,998.18
2023-02-24T10:12:00.588Z,998.18
2023-02-24T10:13:04.776Z,998.16
2023-02-24T10:14:08.940Z,998.15
2023-02-24T10:15:13.157Z,998.10
2023-02-24T10:16:17.344Z,998.08
2023-02-24T10:17:22.703Z,998.07
2023-02-24T10:18:25.613Z,998.06
2023-02-24T10:19:29.767Z,998.01
2023-02-24T10:20:33.938Z,998.02
2023-02-24T10:21:38.091Z,998.00
2023-02-24T10:22:42.238Z,997.98
2023-02-24T10:23:46.551Z,997.99
2023-02-24T10:24:50.727Z,997.99
2023-02-24T10:25:54.954Z,997.96
2023-02-24T10:27:01.273Z,997.91
2023-02-24T10:28:03.287Z,997.92
2023-02-24T10:29:07.425Z,997.92
2023-02-24T10:30:11.742Z,997.86
2023-02-24T10:31:15.941Z,997.85
2023-02-24T10:32:20.127Z,997.84
2023-02-24T10:33:24.176Z,997.87
2023-02-24T10:34:28.342Z,997.82
2023-02-24T10:35:32.523Z,997.85
2023-02-24T10:36:36.817Z,997.84
2023-02-24T10:37:40.924Z,997.80
2023-02-24T10:38:45.079Z,997.80
2023-02-24T10:39:51.826Z,997.76
2023-02-24T10:40:53.484Z,997.76
2023-02-24T10:41:57.972Z,997.74
2023-02-24T10:43:01.820Z,997.72
2023-02-24T10:44:06.070Z,997.66
2023-02-24T10:45:10.171Z,997.65
2023-02-24T10:46:14.406Z,997.63
2023-02-24T10:47:18.552Z,997.65
2023-02-24T10:48:32.349Z,997.59
2023-02-24T10:49:26.880Z,997.57
2023-02-24T10:50:32.474Z,997.55
2023-02-24T10:51:35.243Z,997.51
2023-02-24T10:52:39.410Z,997.54
2023-02-24T10:53:46.069Z,997.51
2023-02-24T10:54:53.823Z,997.48
2023-02-24T10:55:56.554Z,997.43
2023-02-24T10:57:00.662Z,997.38
2023-02-24T10:58:04.802Z,997.34
2023-02-24T10:59:09.091Z,997.35
2023-02-24T11:00:13.244Z,997.33
2023-02-24T11:01:23.791Z,997.30
2023-02-24T11:02:26.173Z,997.25
2023-02-24T11:03:32.980Z,997.26
2023-02-24T11:04:34.519Z,997.23
2023-02-24T11:05:38.762Z,997.23
2023-02-24T11:06:42.910Z,997.17
2023-02-24T11:07:47.110Z,997.12
2023-02-24T11:08:51.253Z,997.08
2023-02-24T11:09:55.489Z,997.09
2023-02-24T11:10:59.697Z,997.04
2023-02-24T11:12:03.833Z,996.98
2023-02-24T11:13:10.291Z,996.96
2023-02-24T11:14:12.212Z,996.96
2023-02-24T11:15:16.403Z,996.91
2023-02-24T11:16:20.707Z,996.89
2023-02-24T11:17:24.777Z,996.86
2023-02-24T11:18:28.970Z,996.85
2023-02-24T11:19:33.132Z,996.84
2023-02-24T11:20:48.383Z,996.77
2023-02-24T11:21:42.808Z,996.76
2023-02-24T11:22:45.695Z,996.66
2023-02-24T11:23:49.830Z,996.69
2023-02-24T11:24:54.042Z,996.61
2023-02-24T11:25:58.230Z,996.59
2023-02-24T11:27:04.331Z,996.63
2023-02-24T11:28:12.527Z,996.61
2023-02-24T11:29:15.300Z,996.57
2023-02-24T11:30:19.508Z,996.51
2023-02-24T11:31:24.136Z,996.54
2023-02-24T11:32:27.955Z,996.48
2023-02-24T11:33:32.008Z,996.48
2023-02-24T11:34:36.220Z,996.45
2023-02-24T11:35:40.390Z,996.41
2023-02-24T11:36:44.570Z,996.39
2023-02-24T11:37:48.770Z,996.35
2023-02-24T11:38:52.978Z,996.28
2023-02-24T11:39:57.269Z,996.27
2023-02-24T11:41:15.423Z,996.30
2023-02-24T11:42:18.495Z,996.26
2023-02-24T11:43:22.626Z,996.23
2023-02-24T11:44:26.827Z,996.24
2023-02-24T11:45:31.093Z,996.21
2023-02-24T11:46:35.299Z,996.19
2023-02-24T11:47:39.432Z,996.17
2023-02-24T11:48:43.672Z,996.13
2023-02-24T11:49:47.741Z,996.11
2023-02-24T11:50:52.060Z,996.08
2023-02-24T11:51:56.272Z,996.08
2023-02-24T11:53:00.441Z,996.04
2023-02-24T11:54:04.599Z,996.04
2023-02-24T11:55:08.827Z,996.02
2023-02-24T11:56:12.998Z,996.06
2023-02-24T11:57:17.175Z,996.06
2023-02-24T11:58:21.509Z,996.06
2023-02-24T11:59:25.658Z,995.99
2023-02-24T12:00:29.837Z,995.99
2023-02-24T12:01:34.036Z,995.93
2023-02-24T12:02:38.218Z,995.92
2023-02-24T12:03:42.355Z,995.95
2023-02-24T12:04:46.584Z,995.94
2023-02-24T12:05:50.843Z,995.93
2023-02-24T12:06:54.946Z,995.93
2023-02-24T12:07:59.248Z,995.93
2023-02-24T12:09:03.360Z,995.91
2023-02-24T12:10:16.707Z,995.90
2023-02-24T12:11:11.759Z,995.86
2023-02-24T12:12:16.053Z,995.90
2023-02-24T12:13:20.170Z,995.86
2023-02-24T12:14:24.371Z,995.78
2023-02-24T12:15:28.501Z,995.81
2023-02-24T12:16:32.706Z,995.80
2023-02-24T12:17:36.892Z,995.81
2023-02-24T12:18:41.041Z,995.77
2023-02-24T12:19:45.234Z,995.72
2023-02-24T12:20:49.520Z,995.71
2023-02-24T12:21:53.703Z,995.68
2023-02-24T12:22:58.017Z,995.71
2023-02-24T12:24:02.206Z,995.69
2023-02-24T12:25:06.398Z,995.66
2023-02-24T12:26:10.586Z,995.67
2023-02-24T12:27:14.771Z,995.69
2023-02-24T12:28:19.025Z,995.71
2023-02-24T12:29:23.243Z,995.66
2023-02-24T12:30:27.491Z,995.65
2023-02-24T12:31:31.749Z,995.59
2023-02-24T12:32:36.084Z,995.53
2023-02-24T12:33:40.026Z,995.56
2023-02-24T12:34:44.257Z,995.59
2023-02-24T12:35:48.424Z,995.55
2023-02-24T12:36:52.609Z,995.50
2023-02-24T12:37:56.818Z,995.49
2023-02-24T12:39:01.046Z,995.46
2023-02-24T12:40:05.228Z,995.43
2023-02-24T12:41:09.639Z,995.38
2023-02-24T12:42:13.666Z,995.38
2023-02-24T12:43:18.014Z,995.31
2023-02-24T12:44:22.067Z,995.29
2023-02-24T12:45:26.317Z,995.28
2023-02-24T12:46:30.549Z,995.30
2023-02-24T12:47:34.700Z,995.28
2023-02-24T12:48:38.866Z,995.28
2023-02-24T12:49:43.041Z,995.29
2023-02-24T12:51:01.271Z,995.27
2023-02-24T12:52:04.254Z,995.25
2023-02-24T12:53:08.297Z,995.27
2023-02-24T12:54:12.568Z,995.25
2023-02-24T12:55:16.783Z,995.20
2023-02-24T12:56:20.784Z,995.16
2023-02-24T12:57:25.108Z,995.12
2023-02-24T12:58:29.321Z,995.13
2023-02-24T12:59:33.493Z,995.08
2023-02-24T13:00:37.696Z,995.12
2023-02-24T13:01:42.007Z,995.05
2023-02-24T13:02:47.083Z,995.04
2023-02-24T13:03:50.892Z,995.05
2023-02-24T13:04:54.996Z,995.00
2023-02-24T13:05:59.224Z,995.00
2023-02-24T13:07:03.395Z,995.01